createdAt,value
2022-09-18T00:00:51.771Z,98.72
2022-09-18T00:03:21.559Z,100.00
2022-09-18T00:05:51.409Z,100.00
2022-09-18T00:08:21.189Z,100.00
2022-09-18T00:10:50.815Z,100.00
2022-09-18T00:13:20.535Z,100.00
2022-09-18T00:16:00.245Z,99.95
2022-09-18T00:18:30.465Z,98.81
2022-09-18T00:21:06.970Z,100.00
2022-09-18T00:23:37.109Z,100.00
2022-09-18T00:26:07.920Z,99.76
2022-09-18T00:28:38.130Z,100.00
2022-09-18T00:31:12.862Z,100.00
2022-09-18T00:33:43.235Z,99.95
2022-09-18T00:36:15.357Z,100.00
2022-09-18T00:38:45.685Z,98.04
2022-09-18T00:41:18.336Z,99.48
2022-09-18T00:43:48.353Z,99.26
2022-09-18T00:46:27.177Z,100.00
2022-09-18T00:49:08.298Z,100.00
2022-09-18T00:51:39.932Z,99.62
2022-09-18T00:54:16.710Z,98.25
2022-09-18T00:56:47.280Z,100.00
2022-09-18T00:59:22.732Z,98.82
2022-09-18T01:01:55.581Z,99.83
2022-09-18T01:04:25.592Z,99.39
2022-09-18T01:07:00.556Z,99.36
2022-09-18T01:09:37.396Z,100.00
2022-09-18T01:12:13.952Z,99.47
2022-09-18T01:14:51.383Z,98.47
2022-09-18T01:17:32.192Z,99.11
2022-09-18T01:20:21.780Z,98.22
2022-09-18T01:23:09.430Z,98.43
2022-09-18T01:25:53.372Z,99.28
2022-09-18T01:28:30.800Z,97.46
2022-09-18T01:31:05.703Z,97.41
2022-09-18T01:33:48.346Z,96.77
2022-09-18T01:36:20.475Z,96.14
2022-09-18T01:38:55.181Z,96.43
2022-09-18T01:41:27.928Z,97.01
2022-09-18T01:44:07.406Z,95.98
2022-09-18T01:46:40.101Z,96.73
2022-09-18T01:49:14.441Z,94.72
2022-09-18T01:51:50.768Z,94.72
2022-09-18T01:54:24.549Z,95.25
2022-09-18T01:56:58.853Z,95.84
2022-09-18T01:59:37.493Z,95.13
2022-09-18T02:02:11.555Z,94.77
2022-09-18T02:04:45.696Z,94.21
2022-09-18T02:07:20.382Z,93.20
2022-09-18T02:09:50.123Z,92.33
2022-09-18T02:12:23.551Z,91.59
2022-09-18T02:14:58.942Z,93.54
2022-09-18T02:17:34.540Z,93.84
2022-09-18T02:20:11.099Z,94.37
2022-09-18T02:22:41.900Z,94.93
2022-09-18T02:25:16.042Z,94.54
2022-09-18T02:27:46.924Z,94.59
2022-09-18T02:30:19.580Z,94.86
2022-09-18T02:32:49.657Z,93.73
2022-09-18T02:35:19.399Z,95.74
2022-09-18T02:38:00.702Z,95.30
2022-09-18T02:40:45.551Z,94.45
2022-09-18T02:43:28.597Z,96.02
2022-09-18T02:46:10.527Z,96.74
2022-09-18T02:48:50.712Z,97.40
2022-09-18T02:51:31.114Z,97.15
2022-09-18T02:54:08.733Z,97.87
2022-09-18T02:56:44.004Z,97.03
2022-09-18T02:59:22.795Z,97.04
2022-09-18T03:01:56.806Z,98.22
2022-09-18T03:04:29.495Z,97.29
2022-09-18T03:06:59.356Z,97.73
2022-09-18T03:09:30.139Z,98.22
2022-09-18T03:11:59.839Z,99.40
2022-09-18T03:14:29.534Z,98.87
2022-09-18T03:17:01.859Z,99.21
2022-09-18T03:19:31.656Z,99.97
2022-09-18T03:22:01.414Z,99.57
2022-09-18T03:24:31.324Z,100.00
2022-09-18T03:27:00.996Z,99.84
2022-09-18T03:29:30.719Z,99.50
2022-09-18T03:32:03.006Z,99.00
2022-09-18T03:34:32.679Z,99.54
2022-09-18T03:37:02.367Z,98.16
2022-09-18T03:39:32.177Z,98.12
2022-09-18T03:42:01.953Z,98.63
2022-09-18T03:44:31.663Z,99.36
2022-09-18T03:47:04.226Z,98.30
2022-09-18T03:49:33.872Z,99.07
2022-09-18T03:52:03.591Z,99.97
2022-09-18T03:54:33.242Z,99.93
2022-09-18T03:57:02.966Z,99.38
2022-09-18T03:59:32.802Z,98.66
2022-09-18T04:02:05.290Z,100.00
2022-09-18T04:04:35.688Z,100.00
2022-09-18T04:07:05.388Z,100.00
2022-09-18T04:09:35.065Z,99.51
2022-09-18T04:12:05.187Z,99.55
2022-09-18T04:14:34.929Z,99.42
2022-09-18T04:17:07.608Z,99.35
2022-09-18T04:19:37.402Z,98.45
2022-09-18T04:22:07.360Z,97.71
2022-09-18T04:24:39.744Z,98.65
2022-09-18T04:27:10.129Z,99.18
2022-09-18T04:29:39.819Z,99.37
2022-09-18T04:32:12.267Z,98.66
2022-09-18T04:34:43.039Z,99.50
2022-09-18T04:37:12.865Z,100.00
2022-09-18T04:39:42.643Z,100.00
2022-09-18T04:42:12.323Z,99.83
2022-09-18T04:44:41.988Z,100.00
2022-09-18T04:47:14.362Z,100.00
2022-09-18T04:49:44.112Z,99.73
2022-09-18T04:52:13.852Z,99.44
2022-09-18T04:54:43.543Z,100.00
2022-09-18T04:57:13.179Z,99.40
2022-09-18T04:59:42.872Z,98.90
2022-09-18T05:02:15.204Z,98.50
2022-09-18T05:04:44.951Z,99.49
2022-09-18T05:07:14.670Z,98.64
2022-09-18T05:09:44.341Z,99.02
2022-09-18T05:12:14.105Z,99.54
2022-09-18T05:14:43.777Z,98.78
2022-09-18T05:17:16.017Z,100.00
2022-09-18T05:19:46.181Z,100.00
2022-09-18T05:22:15.905Z,99.03
2022-09-18T05:24:45.625Z,100.00
2022-09-18T05:27:15.318Z,100.00
2022-09-18T05:29:45.000Z,98.95
2022-09-18T05:32:18.515Z,99.24
2022-09-18T05:34:50.109Z,100.00
2022-09-18T05:37:20.474Z,98.42
2022-09-18T05:39:50.189Z,100.00
2022-09-18T05:42:19.900Z,99.42
2022-09-18T05:44:49.653Z,100.00
2022-09-18T05:47:21.992Z,100.00
2022-09-18T05:49:51.691Z,96.90
2022-09-18T05:52:21.461Z,98.49
2022-09-18T05:54:51.122Z,98.21
2022-09-18T05:57:20.832Z,99.40
2022-09-18T05:59:50.557Z,100.00
2022-09-18T06:02:22.858Z,99.89
2022-09-18T06:04:52.548Z,100.00
2022-09-18T06:07:22.230Z,100.00
2022-09-18T06:09:51.959Z,100.00
2022-09-18T06:12:21.635Z,99.32
2022-09-18T06:14:51.355Z,100.00
2022-09-18T06:17:23.619Z,100.00
2022-09-18T06:19:53.359Z,99.93
2022-09-18T06:22:23.043Z,98.80
2022-09-18T06:24:52.820Z,99.43
2022-09-18T06:27:22.575Z,100.00
2022-09-18T06:29:53.234Z,99.90
2022-09-18T06:32:25.508Z,100.00
2022-09-18T06:34:55.235Z,100.00
2022-09-18T06:37:24.883Z,100.00
2022-09-18T06:39:54.612Z,100.00
2022-09-18T06:42:24.306Z,100.00
2022-09-18T06:44:54.515Z,100.00
2022-09-18T06:47:26.778Z,100.00
2022-09-18T06:49:56.615Z,100.00
2022-09-18T06:52:26.311Z,100.00
2022-09-18T06:54:56.050Z,100.00
2022-09-18T06:57:25.944Z,100.00
2022-09-18T06:59:55.650Z,100.00
2022-09-18T07:02:28.109Z,100.00
2022-09-18T07:04:57.810Z,100.00
2022-09-18T07:07:27.526Z,100.00
2022-09-18T07:09:57.229Z,100.00
2022-09-18T07:12:26.973Z,100.00
2022-09-18T07:14:56.791Z,100.00
2022-09-18T07:17:29.151Z,100.00
2022-09-18T07:19:58.813Z,100.00
2022-09-18T07:22:28.838Z,100.00
2022-09-18T07:24:58.511Z,100.00
2022-09-18T07:27:28.242Z,100.00
2022-09-18T07:29:58.116Z,100.00
2022-09-18T07:32:30.859Z,100.00
2022-09-18T07:35:00.524Z,100.00
2022-09-18T07:37:30.512Z,99.94
2022-09-18T07:40:00.307Z,100.00
2022-09-18T07:42:30.264Z,100.00
2022-09-18T07:45:00.198Z,100.00
2022-09-18T07:47:32.747Z,100.00
2022-09-18T07:50:02.886Z,100.00
2022-09-18T07:52:32.580Z,99.68
2022-09-18T07:55:02.217Z,99.57
2022-09-18T07:57:31.915Z,100.00
2022-09-18T08:00:01.585Z,100.00
2022-09-18T08:02:34.051Z,99.46
2022-09-18T08:05:03.986Z,100.00
2022-09-18T08:07:33.807Z,99.85
2022-09-18T08:10:03.487Z,98.76
2022-09-18T08:12:33.142Z,97.07
2022-09-18T08:15:03.000Z,96.62
2022-09-18T08:17:35.299Z,97.44
2022-09-18T08:20:07.247Z,94.18
2022-09-18T08:22:41.145Z,95.73
2022-09-18T08:25:11.937Z,96.16
2022-09-18T08:27:42.407Z,94.11
2022-09-18T08:30:14.368Z,95.51
2022-09-18T08:32:47.276Z,96.30
2022-09-18T08:35:16.909Z,94.48
2022-09-18T08:37:50.961Z,94.14
2022-09-18T08:40:25.468Z,93.17
2022-09-18T08:43:09.062Z,94.42
2022-09-18T08:45:52.753Z,95.09
2022-09-18T08:48:31.021Z,94.68
2022-09-18T08:51:06.245Z,94.62
2022-09-18T08:53:43.231Z,94.95
2022-09-18T08:56:18.332Z,94.05
2022-09-18T08:58:54.178Z,91.92
2022-09-18T09:01:27.768Z,93.04
2022-09-18T09:04:04.978Z,91.95
2022-09-18T09:06:53.769Z,90.97
2022-09-18T09:09:35.775Z,89.91
2022-09-18T09:12:13.482Z,91.27
2022-09-18T09:15:05.675Z,91.55
2022-09-18T09:17:43.362Z,93.00
2022-09-18T09:20:24.348Z,91.89
2022-09-18T09:23:02.578Z,92.92
2022-09-18T09:25:41.003Z,89.63
2022-09-18T09:28:18.407Z,89.44
2022-09-18T09:30:51.088Z,89.50
2022-09-18T09:33:28.008Z,90.55
2022-09-18T09:36:05.872Z,89.24
2022-09-18T09:38:43.973Z,91.07
2022-09-18T09:41:23.859Z,90.54
2022-09-18T09:44:03.033Z,89.03
2022-09-18T09:46:50.124Z,87.94
2022-09-18T09:49:25.713Z,88.48
2022-09-18T09:52:08.883Z,87.47
2022-09-18T09:54:39.199Z,86.93
2022-09-18T09:57:23.589Z,88.14
2022-09-18T10:00:05.076Z,86.08
2022-09-18T10:03:04.222Z,87.14
2022-09-18T10:05:38.920Z,86.37
2022-09-18T10:08:17.635Z,86.19
2022-09-18T10:10:55.191Z,85.62
2022-09-18T10:13:27.215Z,87.76
2022-09-18T10:16:02.421Z,87.51
2022-09-18T10:18:36.669Z,88.31
2022-09-18T10:21:12.127Z,84.06
2022-09-18T10:23:46.051Z,85.19
2022-09-18T10:26:21.608Z,84.98
2022-09-18T10:28:51.316Z,85.59
2022-09-18T10:31:21.365Z,85.59
2022-09-18T10:33:53.334Z,85.65
2022-09-18T10:36:28.308Z,85.53
2022-09-18T10:39:01.748Z,81.43
2022-09-18T10:41:38.112Z,83.48
2022-09-18T10:44:22.018Z,80.49
2022-09-18T10:47:02.704Z,81.86
2022-09-18T10:49:36.154Z,81.05
2022-09-18T10:52:31.860Z,79.01
2022-09-18T10:55:23.625Z,76.71
2022-09-18T10:58:16.424Z,76.12
2022-09-18T11:00:51.761Z,73.72
2022-09-18T11:03:40.556Z,74.09
2022-09-18T11:06:17.402Z,70.94
2022-09-18T11:08:50.549Z,70.97
2022-09-18T11:11:30.318Z,67.76
2022-09-18T11:14:02.495Z,69.85
2022-09-18T11:16:34.925Z,68.63
2022-09-18T11:19:15.702Z,68.16
2022-09-18T11:21:49.461Z,67.76
2022-09-18T11:24:27.093Z,65.97
2022-09-18T11:27:01.206Z,66.60
2022-09-18T11:29:33.470Z,65.74
2022-09-18T11:32:13.877Z,65.62
2022-09-18T11:34:51.489Z,62.20
2022-09-18T11:37:33.427Z,58.12
2022-09-18T11:40:07.905Z,60.15
2022-09-18T11:42:45.153Z,57.21
2022-09-18T11:45:29.892Z,57.56
2022-09-18T11:48:06.759Z,57.93
2022-09-18T11:50:39.115Z,56.50
2022-09-18T11:53:16.565Z,55.72
2022-09-18T11:55:51.800Z,55.31
2022-09-18T11:58:29.305Z,56.25
2022-09-18T12:01:05.393Z,57.09
2022-09-18T12:03:40.343Z,56.51
2022-09-18T12:06:15.977Z,53.90
2022-09-18T12:08:51.217Z,55.45
2022-09-18T12:11:28.134Z,55.94
2022-09-18T12:14:15.131Z,55.27
2022-09-18T12:16:50.900Z,54.81
2022-09-18T12:19:25.993Z,55.46
2022-09-18T12:22:01.885Z,56.30
2022-09-18T12:24:31.767Z,54.74
2022-09-18T12:27:13.920Z,53.57
2022-09-18T12:30:09.244Z,53.36
2022-09-18T12:33:09.162Z,55.00
2022-09-18T12:35:50.943Z,56.77
2022-09-18T12:38:32.994Z,55.70
2022-09-18T12:41:15.562Z,57.86
2022-09-18T12:44:17.285Z,55.85
2022-09-18T12:47:01.722Z,56.09
2022-09-18T12:49:51.937Z,55.44
2022-09-18T12:52:32.764Z,55.46
2022-09-18T12:55:29.264Z,55.13
2022-09-18T12:58:11.883Z,55.39
2022-09-18T13:00:43.215Z,56.83
2022-09-18T13:03:21.659Z,55.01
2022-09-18T13:05:57.565Z,54.40
2022-09-18T13:08:31.918Z,54.25
2022-09-18T13:11:06.268Z,55.78
2022-09-18T13:13:42.901Z,56.46
2022-09-18T13:16:18.758Z,56.60
2022-09-18T13:18:57.026Z,56.06
2022-09-18T13:21:30.443Z,57.06
2022-09-18T13:24:01.699Z,56.52
2022-09-18T13:26:34.779Z,58.00
2022-09-18T13:29:05.358Z,56.56
2022-09-18T13:31:37.899Z,57.03
2022-09-18T13:34:20.622Z,58.96
2022-09-18T13:36:50.526Z,56.80
2022-09-18T13:39:27.093Z,57.47
2022-09-18T13:41:58.870Z,57.16
2022-09-18T13:44:30.967Z,57.61
2022-09-18T13:47:12.954Z,58.44
2022-09-18T13:49:52.095Z,56.76
2022-09-18T13:52:43.843Z,58.61
2022-09-18T13:55:37.084Z,58.43
2022-09-18T13:58:36.998Z,56.73
2022-09-18T14:01:09.004Z,57.13
2022-09-18T14:03:42.035Z,57.94
2022-09-18T14:06:48.457Z,58.09
2022-09-18T14:09:30.709Z,57.43
2022-09-18T14:12:14.369Z,56.36
2022-09-18T14:14:46.573Z,58.15
2022-09-18T14:17:18.994Z,58.04
2022-09-18T14:19:50.349Z,58.56
2022-09-18T14:22:34.594Z,58.88
2022-09-18T14:25:06.654Z,57.88
2022-09-18T14:27:42.574Z,59.18
2022-09-18T14:30:24.406Z,57.90
2022-09-18T14:33:19.117Z,58.91
2022-09-18T14:35:54.913Z,58.77
2022-09-18T14:38:36.313Z,59.11
2022-09-18T14:41:22.069Z,59.46
2022-09-18T14:43:53.951Z,59.53
2022-09-18T14:46:25.591Z,59.61
2022-09-18T14:48:56.061Z,60.14
2022-09-18T14:51:28.498Z,59.17
2022-09-18T14:54:02.227Z,59.43
2022-09-18T14:56:34.866Z,58.50
2022-09-18T14:59:08.554Z,58.61
2022-09-18T15:01:40.512Z,59.89
2022-09-18T15:04:16.987Z,59.33
2022-09-18T15:06:50.052Z,58.29
2022-09-18T15:09:28.797Z,58.73
2022-09-18T15:12:02.687Z,58.94
2022-09-18T15:14:43.956Z,60.23
2022-09-18T15:17:21.299Z,60.88
2022-09-18T15:19:59.136Z,61.49
2022-09-18T15:22:30.176Z,60.80
2022-09-18T15:25:02.722Z,60.73
2022-09-18T15:27:33.927Z,61.30
2022-09-18T15:30:07.340Z,62.00
2022-09-18T15:32:41.496Z,60.75
2022-09-18T15:35:20.247Z,59.05
2022-09-18T15:37:54.371Z,59.33
2022-09-18T15:40:30.473Z,59.82
2022-09-18T15:43:03.504Z,59.01
2022-09-18T15:45:35.656Z,58.97
2022-09-18T15:48:37.458Z,58.18
2022-09-18T15:51:14.342Z,59.60
2022-09-18T15:53:44.160Z,59.31
2022-09-18T15:56:23.754Z,58.92
2022-09-18T15:58:58.944Z,61.05
2022-09-18T16:01:35.618Z,60.70
2022-09-18T16:04:09.549Z,61.42
2022-09-18T16:06:46.308Z,60.68
2022-09-18T16:09:30.714Z,60.24
2022-09-18T16:12:39.972Z,59.87
2022-09-18T16:15:22.043Z,59.14
2022-09-18T16:18:25.401Z,60.25
2022-09-18T16:21:08.963Z,59.20
2022-09-18T16:23:48.636Z,60.15
2022-09-18T16:26:26.941Z,60.58
2022-09-18T16:29:01.600Z,60.72
2022-09-18T16:31:33.670Z,60.39
2022-09-18T16:34:05.265Z,61.28
2022-09-18T16:36:37.122Z,61.12
2022-09-18T16:39:10.111Z,60.80
2022-09-18T16:41:40.124Z,61.07
2022-09-18T16:44:15.414Z,60.36
2022-09-18T16:46:48.229Z,61.16
2022-09-18T16:49:22.930Z,59.21
2022-09-18T16:51:52.727Z,60.41
2022-09-18T16:54:22.377Z,59.94
2022-09-18T16:56:54.267Z,61.33
2022-09-18T16:59:29.792Z,60.96
2022-09-18T17:02:04.521Z,61.01
2022-09-18T17:04:34.861Z,60.69
2022-09-18T17:07:06.481Z,60.01
2022-09-18T17:09:36.168Z,60.46
2022-09-18T17:12:06.323Z,60.50
2022-09-18T17:14:38.684Z,60.22
2022-09-18T17:17:08.475Z,61.62
2022-09-18T17:19:39.490Z,60.57
2022-09-18T17:22:09.168Z,62.39
2022-09-18T17:24:38.968Z,61.43
2022-09-18T17:27:09.449Z,61.65
2022-09-18T17:29:41.685Z,60.39
2022-09-18T17:32:12.705Z,60.36
2022-09-18T17:34:43.653Z,57.99
2022-09-18T17:37:13.381Z,60.20
2022-09-18T17:39:43.006Z,60.21
2022-09-18T17:42:12.679Z,58.95
2022-09-18T17:44:45.005Z,59.65
2022-09-18T17:47:14.671Z,60.08
2022-09-18T17:49:44.293Z,58.74
2022-09-18T17:52:13.975Z,59.17
2022-09-18T17:54:43.675Z,59.44
2022-09-18T17:57:14.301Z,58.01
2022-09-18T17:59:48.217Z,58.54
2022-09-18T18:02:17.898Z,58.06
2022-09-18T18:04:47.646Z,58.90
2022-09-18T18:07:17.867Z,59.01
2022-09-18T18:09:47.546Z,59.19
2022-09-18T18:12:17.291Z,60.62
2022-09-18T18:14:49.627Z,60.02
2022-09-18T18:17:20.316Z,61.23
2022-09-18T18:19:51.571Z,60.70
2022-09-18T18:22:21.256Z,61.47
2022-09-18T18:24:51.805Z,59.20
2022-09-18T18:27:21.680Z,58.54
2022-09-18T18:29:53.970Z,59.70
2022-09-18T18:32:23.613Z,59.41
2022-09-18T18:34:53.305Z,58.86
2022-09-18T18:37:23.064Z,59.25
2022-09-18T18:39:52.818Z,60.02
2022-09-18T18:42:22.545Z,60.19
2022-09-18T18:44:54.790Z,60.02
2022-09-18T18:47:25.372Z,61.50
2022-09-18T18:49:55.050Z,62.49
2022-09-18T18:52:24.883Z,65.54
2022-09-18T18:54:54.525Z,64.17
2022-09-18T18:57:24.452Z,65.58
2022-09-18T18:59:57.415Z,68.90
2022-09-18T19:02:27.179Z,66.92
2022-09-18T19:05:03.236Z,66.86
2022-09-18T19:07:34.118Z,65.69
2022-09-18T19:10:03.834Z,66.66
2022-09-18T19:12:34.308Z,65.88
2022-09-18T19:15:06.823Z,67.30
2022-09-18T19:17:36.509Z,67.17
2022-09-18T19:20:06.407Z,67.36
2022-09-18T19:22:36.001Z,68.31
2022-09-18T19:25:06.547Z,68.93
2022-09-18T19:27:36.215Z,68.32
2022-09-18T19:30:09.696Z,67.31
2022-09-18T19:32:39.294Z,67.31
2022-09-18T19:35:10.152Z,65.55
2022-09-18T19:37:39.692Z,67.09
2022-09-18T19:40:14.326Z,67.16
2022-09-18T19:42:44.524Z,65.79
2022-09-18T19:45:18.522Z,65.55
2022-09-18T19:47:50.870Z,66.87
2022-09-18T19:50:25.582Z,66.58
2022-09-18T19:52:55.267Z,66.97
2022-09-18T19:55:25.351Z,67.64
2022-09-18T19:57:56.777Z,68.06
2022-09-18T20:00:30.065Z,68.35
2022-09-18T20:03:01.390Z,68.56
2022-09-18T20:05:31.001Z,69.00
2022-09-18T20:08:01.503Z,68.07
2022-09-18T20:10:31.177Z,69.68
2022-09-18T20:13:00.768Z,71.49
2022-09-18T20:15:32.957Z,69.55
2022-09-18T20:18:02.592Z,71.35
2022-09-18T20:20:35.084Z,71.20
2022-09-18T20:23:04.710Z,71.67
2022-09-18T20:25:35.694Z,73.02
2022-09-18T20:28:05.786Z,75.12
2022-09-18T20:30:37.993Z,75.26
2022-09-18T20:33:07.836Z,74.75
2022-09-18T20:35:38.351Z,77.07
2022-09-18T20:38:07.951Z,76.93
2022-09-18T20:40:38.437Z,78.79
2022-09-18T20:43:08.107Z,79.77
2022-09-18T20:45:40.447Z,80.02
2022-09-18T20:48:10.063Z,80.66
2022-09-18T20:50:43.349Z,81.80
2022-09-18T20:53:12.943Z,82.85
2022-09-18T20:55:42.529Z,82.83
2022-09-18T20:58:12.267Z,83.22
2022-09-18T21:00:46.896Z,83.69
2022-09-18T21:03:17.499Z,82.04
2022-09-18T21:05:47.110Z,83.77
2022-09-18T21:08:17.063Z,85.09
2022-09-18T21:10:49.465Z,82.70
2022-09-18T21:13:20.229Z,83.35
2022-09-18T21:15:52.595Z,82.83
2022-09-18T21:18:24.096Z,82.31
2022-09-18T21:21:04.270Z,83.51
2022-09-18T21:23:46.425Z,82.06
2022-09-18T21:26:17.685Z,82.95
2022-09-18T21:28:47.703Z,83.77
2022-09-18T21:31:20.243Z,83.85
2022-09-18T21:33:53.063Z,83.21
2022-09-18T21:36:23.429Z,82.43
2022-09-18T21:38:54.169Z,82.73
2022-09-18T21:41:25.691Z,81.24
2022-09-18T21:43:57.601Z,82.21
2022-09-18T21:46:30.377Z,83.02
2022-09-18T21:49:00.165Z,83.10
2022-09-18T21:51:29.839Z,84.22
2022-09-18T21:53:59.634Z,83.66
2022-09-18T21:56:29.476Z,83.99
2022-09-18T21:59:00.216Z,84.80
2022-09-18T22:01:38.186Z,83.09
2022-09-18T22:04:10.058Z,85.80
2022-09-18T22:06:42.184Z,85.02
2022-09-18T22:09:15.005Z,85.20
2022-09-18T22:11:45.818Z,85.76
2022-09-18T22:14:17.354Z,84.71
2022-09-18T22:16:49.975Z,84.99
2022-09-18T22:19:20.429Z,85.01
2022-09-18T22:21:52.212Z,85.51
2022-09-18T22:24:24.130Z,86.72
2022-09-18T22:26:56.368Z,87.58
2022-09-18T22:29:28.856Z,88.44
2022-09-18T22:32:01.883Z,88.46
2022-09-18T22:34:33.622Z,89.72
2022-09-18T22:37:03.900Z,88.29
2022-09-18T22:39:33.711Z,88.31
2022-09-18T22:42:03.538Z,88.92
2022-09-18T22:44:33.242Z,90.44
2022-09-18T22:47:05.724Z,90.74
2022-09-18T22:49:35.766Z,90.18
2022-09-18T22:52:05.492Z,91.21
2022-09-18T22:54:35.788Z,92.08
2022-09-18T22:57:05.680Z,92.21
2022-09-18T22:59:35.692Z,93.88
2022-09-18T23:02:08.706Z,94.08
2022-09-18T23:04:38.592Z,94.99
2022-09-18T23:07:08.381Z,95.68
2022-09-18T23:09:38.102Z,96.43
2022-09-18T23:12:08.308Z,98.36
2022-09-18T23:14:37.999Z,97.73
2022-09-18T23:17:10.433Z,97.60
2022-09-18T23:19:41.297Z,97.14
2022-09-18T23:22:12.523Z,97.70
2022-09-18T23:24:42.460Z,95.55
2022-09-18T23:27:12.149Z,95.62
2022-09-18T23:29:41.956Z,94.42
2022-09-18T23:32:14.207Z,95.51
2022-09-18T23:34:44.178Z,96.59
2022-09-18T23:37:13.863Z,96.90
2022-09-18T23:39:43.564Z,96.24
2022-09-18T23:42:13.303Z,95.51
2022-09-18T23:44:42.936Z,96.13
2022-09-18T23:47:15.269Z,96.45
2022-09-18T23:49:44.966Z,95.34
2022-09-18T23:52:14.697Z,94.84
2022-09-18T23:54:44.469Z,94.44
2022-09-18T23:57:14.161Z,95.19
2022-09-18T23:59:43.872Z,96.81
